Time;durP1;ratioP1;P1;durP2;ratioP2;P2;SDS_P1;SDS_P2;PMS_P1;PMS_P2;Temp;Humidity;BMP_temperature;BMP_pressure;BME280_temperature;BME280_humidity;BME280_pressure;Samples;Min_cycle;Max_cycle;Signal;HPM_P1;HPM_P2
2022/11/25 00:01:55;;;;;;;3.40;2.80;;;;;;;6.02;59.42;94674.50;5025178;28;20224;-66
2022/11/25 00:04:21;;;;;;;2.87;2.60;;;;;;;6.06;59.57;94669.84;5025761;28;20214;-66
2022/11/25 00:06:46;;;;;;;2.87;2.30;;;;;;;6.10;59.42;94659.00;5019572;28;20190;-67
2022/11/25 00:09:12;;;;;;;2.37;2.17;;;;;;;6.18;59.24;94680.03;5026363;28;20197;-66
2022/11/25 00:11:39;;;;;;;3.67;2.20;;;;;;;6.16;59.22;94675.91;5020804;28;20194;-67
2022/11/25 00:14:06;;;;;;;2.83;2.10;;;;;;;6.05;59.49;94683.84;5040082;28;20186;-67
2022/11/25 00:16:32;;;;;;;2.43;2.20;;;;;;;6.08;59.62;94688.81;5027488;28;20257;-67
2022/11/25 00:18:58;;;;;;;3.13;2.40;;;;;;;6.21;58.99;94688.56;5027519;28;20186;-67
2022/11/25 00:21:27;;;;;;;2.87;2.50;;;;;;;6.18;58.83;94679.22;5027594;28;20190;-67
2022/11/25 00:23:55;;;;;;;2.47;2.20;;;;;;;6.13;59.06;94682.22;5023666;28;20234;-67
2022/11/25 00:26:22;;;;;;;2.70;2.23;;;;;;;6.08;59.00;94675.75;5027184;28;20190;-66
2022/11/25 00:28:48;;;;;;;3.23;2.40;;;;;;;6.12;59.22;94687.56;5021756;28;20185;-67
2022/11/25 00:31:15;;;;;;;2.90;2.50;;;;;;;6.07;59.13;94680.16;5023954;28;20221;-67
2022/11/25 00:33:41;;;;;;;3.17;2.37;;;;;;;6.11;59.01;94684.13;5008530;28;20265;-67
2022/11/25 00:36:30;;;;;;;2.70;2.50;;;;;;;6.05;59.20;94689.06;4998464;28;20229;-67
2022/11/25 00:38:58;;;;;;;3.07;2.77;;;;;;;6.01;59.92;94692.91;4998907;28;20299;-67
2022/11/25 00:46:54;;;;;;;4.20;3.07;;;;;;;5.96;60.40;94694.13;4998288;28;20214;-68
2022/11/25 00:49:19;;;;;;;3.33;3.03;;;;;;;5.88;60.77;94683.50;5004748;28;20187;-67
2022/11/25 00:51:44;;;;;;;4.27;3.20;;;;;;;5.90;60.90;94691.16;5000492;28;20217;-67
2022/11/25 00:54:10;;;;;;;3.23;2.93;;;;;;;5.92;60.97;94703.13;5001973;28;20213;-68
2022/11/25 00:56:35;;;;;;;4.03;3.10;;;;;;;5.96;60.65;94686.31;5002734;28;20194;-68
2022/11/25 00:59:01;;;;;;;3.30;3.00;;;;;;;5.99;60.52;94697.41;4995182;28;20242;-67
2022/11/25 01:01:27;;;;;;;3.60;3.30;;;;;;;5.87;60.67;94686.22;5006396;28;20195;-68
2022/11/25 01:03:52;;;;;;;3.80;3.00;;;;;;;5.88;60.81;94687.84;5001375;28;20297;-67
2022/11/25 01:06:19;;;;;;;4.97;3.43;;;;;;;5.94;61.09;94692.59;4998832;28;20242;-67
2022/11/25 01:08:44;;;;;;;6.13;3.63;;;;;;;5.87;61.08;94696.66;5001191;28;20227;-67
2022/11/25 01:11:12;;;;;;;3.60;2.60;;;;;;;5.93;60.46;94690.91;5004890;28;20225;-67
2022/11/25 01:13:37;;;;;;;3.63;2.67;;;;;;;5.86;60.48;94692.41;4998085;28;20190;-67
2022/11/25 01:16:04;;;;;;;3.70;2.97;;;;;;;5.82;60.73;94693.63;5004482;28;20195;-67
2022/11/25 01:18:30;;;;;;;3.00;2.80;;;;;;;5.82;61.09;94680.56;5003071;28;20217;-68
2022/11/25 01:21:13;;;;;;;2.70;2.50;;;;;;;6.00;60.55;94696.47;4996066;28;20186;-68
2022/11/25 01:23:40;;;;;;;2.80;2.60;;;;;;;5.92;60.66;94691.88;4986877;28;20245;-69
2022/11/25 01:26:09;;;;;;;3.90;2.60;;;;;;;5.99;60.28;94693.03;5007393;28;20258;-68
2022/11/25 01:28:35;;;;;;;3.50;3.13;;;;;;;5.95;60.52;94691.63;5004244;28;20286;-66
2022/11/25 01:31:15;;;;;;;3.40;3.10;;;;;;;5.90;60.95;94688.56;5006268;28;20270;-68
2022/11/25 01:33:42;;;;;;;3.33;2.80;;;;;;;5.92;60.70;94689.25;5003493;28;20313;-65
2022/11/25 01:36:13;;;;;;;3.00;2.67;;;;;;;5.94;60.72;94690.00;5003220;28;20186;-68
2022/11/25 01:38:39;;;;;;;3.10;2.90;;;;;;;5.93;60.53;94683.06;5006105;28;20190;-66
2022/11/25 01:41:06;;;;;;;3.57;2.70;;;;;;;5.89;60.04;94676.47;4997679;28;20194;-67
2022/11/25 01:43:32;;;;;;;2.83;2.37;;;;;;;5.89;60.30;94674.69;5001745;28;20219;-66
2022/11/25 01:46:19;;;;;;;2.30;2.10;;;;;;;6.00;59.82;94679.03;5004831;28;20226;-66
2022/11/25 01:49:00;;;;;;;2.93;2.70;;;;;;;6.00;59.89;94660.75;4996415;28;20187;-67
2022/11/25 01:51:38;;;;;;;2.90;2.30;;;;;;;6.06;59.33;94654.19;5000169;28;20195;-67
2022/11/25 01:54:05;;;;;;;3.73;2.60;;;;;;;6.10;58.68;94666.00;5005642;28;20202;-67
2022/11/25 01:56:37;;;;;;;2.37;2.13;;;;;;;5.95;59.03;94657.72;4999489;28;20219;-67
2022/11/25 01:59:03;;;;;;;2.53;2.33;;;;;;;6.09;58.64;94667.78;5003535;28;20182;-66
2022/11/25 02:01:29;;;;;;;2.93;2.33;;;;;;;6.10;58.28;94661.63;5000600;28;20193;-67
2022/11/25 02:03:57;;;;;;;2.80;1.80;;;;;;;6.08;58.36;94655.69;5006049;28;20203;-67
2022/11/25 02:06:31;;;;;;;2.03;1.80;;;;;;;6.16;58.10;94666.28;5006656;28;20206;-66
2022/11/25 02:09:07;;;;;;;1.90;1.80;;;;;;;6.09;57.94;94664.34;5004787;28;20237;-67
2022/11/25 02:11:35;;;;;;;2.67;1.90;;;;;;;6.11;57.37;94665.03;5014558;28;20202;-66
2022/11/25 02:14:02;;;;;;;2.23;2.03;;;;;;;6.08;57.66;94673.16;5014831;28;20199;-66
2022/11/25 02:16:28;;;;;;;2.30;2.00;;;;;;;6.07;57.50;94672.31;4993682;28;20203;-66
2022/11/25 02:18:54;;;;;;;1.97;1.77;;;;;;;6.06;57.63;94686.31;5007610;28;20191;-66
2022/11/25 02:21:26;;;;;;;2.33;1.77;;;;;;;6.07;57.08;94684.56;5009024;28;20222;-66
2022/11/25 02:24:03;;;;;;;2.23;1.73;;;;;;;6.07;57.26;94687.16;5006627;28;20218;-66
2022/11/25 02:26:29;;;;;;;2.30;2.00;;;;;;;6.05;57.15;94682.06;5005538;28;20196;-66
2022/11/25 02:28:55;;;;;;;1.90;1.80;;;;;;;5.99;57.63;94684.38;4997363;28;20209;-67
2022/11/25 02:31:22;;;;;;;2.13;2.03;;;;;;;6.07;57.16;94690.59;5007848;28;20219;-67
2022/11/25 02:33:48;;;;;;;2.17;1.70;;;;;;;6.08;56.59;94699.25;4989492;28;20259;-67
2022/11/25 02:36:17;;;;;;;5.00;1.97;;;;;;;6.06;56.65;94695.94;5004562;28;20222;-67
2022/11/25 02:38:55;;;;;;;2.10;1.90;;;;;;;6.03;56.78;94683.97;5006299;28;20188;-67
2022/11/25 02:41:33;;;;;;;1.80;1.70;;;;;;;6.11;56.61;94688.53;5005122;28;20186;-67
2022/11/25 02:44:00;;;;;;;1.60;1.50;;;;;;;6.15;56.59;94685.53;5002243;28;20213;-67
2022/11/25 02:46:27;;;;;;;2.07;1.87;;;;;;;6.12;56.31;94683.19;4999078;28;20190;-67
2022/11/25 02:48:54;;;;;;;1.70;1.60;;;;;;;6.03;56.63;94688.38;5007018;28;20195;-67
2022/11/25 02:51:22;;;;;;;1.80;1.70;;;;;;;6.03;56.49;94686.59;5002975;28;20197;-67
2022/11/25 02:53:48;;;;;;;2.00;1.80;;;;;;;6.14;56.30;94688.28;5007472;28;20217;-67
2022/11/25 02:56:15;;;;;;;2.13;1.93;;;;;;;6.11;56.03;94694.56;5000966;28;20413;-66
2022/11/25 02:58:41;;;;;;;2.40;1.70;;;;;;;6.12;56.43;94692.78;5003119;28;20199;-66
2022/11/25 03:01:08;;;;;;;1.87;1.77;;;;;;;6.06;56.51;94694.16;5001135;28;20201;-67
2022/11/25 03:03:34;;;;;;;2.20;1.97;;;;;;;5.98;57.10;94693.97;5006903;28;20207;-66
2022/11/25 03:05:59;;;;;;;2.57;1.80;;;;;;;6.01;57.09;94693.72;5023571;28;20258;-66
2022/11/25 03:08:25;;;;;;;1.97;1.80;;;;;;;6.03;57.15;94702.25;5003361;28;20298;-68
2022/11/25 03:10:50;;;;;;;2.60;1.90;;;;;;;6.07;57.46;94698.44;5004306;28;20652;-67
2022/11/25 03:13:16;;;;;;;2.37;2.17;;;;;;;6.02;57.55;94710.22;5007018;28;20229;-67
2022/11/25 03:15:41;;;;;;;2.10;1.90;;;;;;;6.01;57.86;94701.53;5003919;28;20197;-67
2022/11/25 03:18:07;;;;;;;3.27;2.30;;;;;;;6.02;58.04;94694.56;5002179;28;20193;-67
2022/11/25 03:20:34;;;;;;;2.00;1.80;;;;;;;6.03;58.13;94697.03;5004097;28;20183;-66
2022/11/25 03:23:00;;;;;;;2.10;1.90;;;;;;;6.03;58.03;94711.88;5003826;28;20187;-67
2022/11/25 03:25:25;;;;;;;2.40;2.00;;;;;;;5.97;58.22;94702.78;5000301;28;20187;-66
2022/11/25 03:27:51;;;;;;;3.17;2.40;;;;;;;5.82;58.95;94702.25;5002202;28;20191;-67
2022/11/25 03:30:20;;;;;;;3.20;2.43;;;;;;;5.81;58.90;94705.00;5004337;28;20190;-67
2022/11/25 03:32:45;;;;;;;2.73;2.33;;;;;;;5.81;59.26;94716.28;5005180;28;20266;-67
2022/11/25 03:35:12;;;;;;;2.60;2.23;;;;;;;5.85;59.49;94711.63;5011100;28;20287;-67
2022/11/25 03:37:38;;;;;;;3.10;2.60;;;;;;;5.82;59.91;94720.53;5006438;28;20192;-67
2022/11/25 03:40:05;;;;;;;2.70;2.50;;;;;;;5.87;60.08;94730.59;5005474;28;20198;-68
2022/11/25 03:42:31;;;;;;;3.10;2.80;;;;;;;5.90;60.33;94727.72;5001632;28;20183;-68
2022/11/25 03:44:56;;;;;;;2.93;2.60;;;;;;;5.73;60.98;94722.13;5007860;28;20210;-68
2022/11/25 03:47:22;;;;;;;2.70;2.50;;;;;;;5.71;61.37;94739.69;5003683;28;20195;-68
2022/11/25 03:49:47;;;;;;;3.83;2.80;;;;;;;5.65;61.74;94728.97;5005990;28;20192;-68
2022/11/25 03:52:13;;;;;;;3.40;2.80;;;;;;;5.52;62.31;94740.41;5004329;28;20343;-68
2022/11/25 03:54:38;;;;;;;2.80;2.53;;;;;;;5.50;62.64;94733.66;5000204;28;20179;-68
2022/11/25 03:57:04;;;;;;;3.27;2.70;;;;;;;5.51;62.72;94743.16;5002440;28;20205;-67
2022/11/25 03:59:29;;;;;;;2.93;2.63;;;;;;;5.49;63.23;94745.06;5001245;28;20190;-67
2022/11/25 04:01:55;;;;;;;2.93;2.67;;;;;;;5.42;63.33;94746.50;5007359;28;20265;-67
2022/11/25 04:04:20;;;;;;;2.87;2.40;;;;;;;5.42;63.77;94764.78;5000265;28;20284;-67
2022/11/25 04:06:46;;;;;;;2.80;2.27;;;;;;;5.42;63.67;94762.16;5017374;28;20190;-67
2022/11/25 04:09:11;;;;;;;2.33;2.13;;;;;;;5.39;63.57;94754.59;5003301;28;20195;-67
2022/11/25 04:14:21;;;;;;;2.47;2.10;;;;;;;5.32;63.98;94759.50;5001974;28;20205;-67
2022/11/25 04:16:46;;;;;;;2.37;1.80;;;;;;;5.25;64.14;94768.78;5001713;28;20198;-68
2022/11/25 04:19:12;;;;;;;2.27;2.07;;;;;;;5.32;63.90;94762.13;4997041;28;20198;-67
2022/11/25 04:21:37;;;;;;;2.60;2.13;;;;;;;5.30;63.49;94762.22;4999790;28;20190;-67
2022/11/25 04:24:03;;;;;;;2.93;1.80;;;;;;;5.35;63.35;94763.63;4997123;28;20206;-68
2022/11/25 04:26:28;;;;;;;1.87;1.77;;;;;;;5.28;63.68;94774.56;5003322;28;20187;-67
2022/11/25 04:28:53;;;;;;;1.97;1.80;;;;;;;5.26;63.43;94766.03;5006245;28;20294;-67
2022/11/25 04:31:19;;;;;;;2.20;2.00;;;;;;;5.28;63.48;94774.56;4998535;28;20313;-67
2022/11/25 04:33:45;;;;;;;2.10;1.90;;;;;;;5.36;63.46;94783.53;5017606;28;20239;-67
2022/11/25 04:36:10;;;;;;;1.90;1.80;;;;;;;5.35;63.29;94794.94;5003667;28;20202;-67
2022/11/25 04:38:35;;;;;;;2.10;1.90;;;;;;;5.29;63.11;94788.41;5004757;28;20192;-67
2022/11/25 04:41:01;;;;;;;2.13;1.70;;;;;;;5.26;63.60;94786.88;5005678;28;20187;-66
2022/11/25 04:43:26;;;;;;;2.13;1.90;;;;;;;5.25;63.29;94798.25;5002930;28;20222;-66
2022/11/25 04:45:52;;;;;;;4.17;1.70;;;;;;;5.29;63.04;94797.09;5007820;28;20199;-67
2022/11/25 04:48:18;;;;;;;2.10;2.00;;;;;;;5.33;63.46;94802.03;5004486;28;20186;-67
2022/11/25 04:50:44;;;;;;;1.73;1.63;;;;;;;5.33;63.53;94796.81;5019723;28;20333;-66
2022/11/25 04:53:09;;;;;;;1.73;1.63;;;;;;;5.36;63.24;94805.22;4999713;28;20212;-66
2022/11/25 04:55:35;;;;;;;2.07;1.70;;;;;;;5.35;63.03;94794.94;5004065;28;20207;-66
2022/11/25 04:58:00;;;;;;;1.90;1.70;;;;;;;5.34;63.35;94814.94;5003158;28;20198;-66
2022/11/25 05:00:25;;;;;;;1.53;1.43;;;;;;;5.35;63.32;94813.19;5002900;28;20292;-66
2022/11/25 05:02:51;;;;;;;2.07;1.70;;;;;;;5.35;63.37;94814.00;5006986;28;20240;-66
2022/11/25 05:05:16;;;;;;;1.80;1.70;;;;;;;5.30;63.27;94819.59;4999335;28;20215;-66
2022/11/25 05:07:42;;;;;;;1.80;1.70;;;;;;;5.34;63.07;94814.09;5004779;28;20187;-67
2022/11/25 05:10:08;;;;;;;1.87;1.77;;;;;;;5.30;63.25;94824.78;5001802;28;20246;-68
2022/11/25 05:12:34;;;;;;;2.00;1.90;;;;;;;5.38;62.99;94836.38;5000937;28;20241;-67
2022/11/25 05:15:00;;;;;;;2.20;1.90;;;;;;;5.28;62.83;94839.72;4999960;28;20178;-67
2022/11/25 05:17:29;;;;;;;2.27;2.00;;;;;;;5.25;63.08;94839.16;5001723;28;20201;-68
2022/11/25 05:19:55;;;;;;;1.87;1.77;;;;;;;5.22;63.23;94853.25;4999631;28;20190;-68
2022/11/25 05:22:24;;;;;;;1.90;1.80;;;;;;;5.29;62.97;94843.16;4996349;28;20187;-67
2022/11/25 05:24:49;;;;;;;2.03;1.60;;;;;;;5.31;62.89;94852.50;5003798;28;20207;-67
2022/11/25 05:27:16;;;;;;;2.37;1.70;;;;;;;5.37;62.52;94847.75;4995285;28;20634;-67
2022/11/25 05:29:41;;;;;;;2.50;1.80;;;;;;;5.46;61.88;94857.47;4998560;28;20282;-67
2022/11/25 05:32:08;;;;;;;1.80;1.70;;;;;;;5.49;61.60;94865.84;5004258;28;20364;-67
2022/11/25 05:34:33;;;;;;;1.77;1.67;;;;;;;5.48;61.21;94859.00;5030976;28;20185;-66
2022/11/25 05:36:59;;;;;;;2.13;1.60;;;;;;;5.55;60.66;94871.53;5025706;28;20240;-67
2022/11/25 05:39:24;;;;;;;1.80;1.70;;;;;;;5.55;60.75;94877.56;5030274;28;20200;-67
2022/11/25 05:41:50;;;;;;;1.73;1.50;;;;;;;5.55;60.38;94895.81;5041087;28;20186;-67
2022/11/25 05:44:15;;;;;;;2.30;2.10;;;;;;;5.54;60.46;94881.13;5026763;28;20276;-67
2022/11/25 05:46:45;;;;;;;1.90;1.70;;;;;;;5.49;60.62;94881.50;5022850;28;20272;-67
2022/11/25 05:49:11;;;;;;;2.30;1.77;;;;;;;5.50;60.27;94887.53;5025562;28;20204;-67
2022/11/25 05:51:37;;;;;;;2.03;1.83;;;;;;;5.59;60.31;94891.19;5032472;28;20189;-67
2022/11/25 05:54:02;;;;;;;2.33;1.50;;;;;;;5.64;59.45;94891.63;5032977;28;20197;-67
2022/11/25 05:56:28;;;;;;;2.30;1.80;;;;;;;5.69;59.98;94894.69;5038006;28;20193;-67
2022/11/25 05:58:54;;;;;;;1.80;1.70;;;;;;;5.63;59.36;94888.19;5028364;28;20216;-68
2022/11/25 06:01:20;;;;;;;1.83;1.57;;;;;;;5.72;59.43;94900.50;5041463;28;20190;-68
2022/11/25 06:03:46;;;;;;;2.30;2.10;;;;;;;5.77;58.95;94910.53;5027991;28;20212;-68
2022/11/25 06:06:11;;;;;;;3.90;1.70;;;;;;;5.88;58.50;94902.69;5030695;28;20272;-68
2022/11/25 06:08:37;;;;;;;1.80;1.70;;;;;;;5.81;58.61;94900.72;5032664;28;20185;-68
2022/11/25 06:11:05;;;;;;;2.07;1.87;;;;;;;5.84;58.25;94921.31;5026843;28;20279;-68
2022/11/25 06:13:30;;;;;;;2.17;1.70;;;;;;;5.95;58.10;94921.31;5031156;28;20292;-67
2022/11/25 06:15:56;;;;;;;2.53;2.23;;;;;;;5.87;57.93;94911.44;5043442;28;20630;-68
2022/11/25 06:18:21;;;;;;;2.43;1.90;;;;;;;5.86;57.50;94909.81;5045390;28;20182;-67
2022/11/25 06:20:57;;;;;;;3.73;1.97;;;;;;;5.94;57.66;94928.31;5047809;28;20196;-67
2022/11/25 06:23:23;;;;;;;2.40;1.90;;;;;;;5.98;57.43;94928.88;5039564;28;20186;-66
2022/11/25 06:25:49;;;;;;;3.37;1.93;;;;;;;6.01;57.57;94928.63;5043126;28;20194;-67
2022/11/25 06:28:14;;;;;;;2.27;1.97;;;;;;;5.96;57.44;94923.78;5029144;28;20276;-68
2022/11/25 06:30:39;;;;;;;2.37;1.90;;;;;;;6.09;57.37;94939.25;5028536;28;20185;-69
2022/11/25 06:33:05;;;;;;;2.90;2.00;;;;;;;6.18;57.50;94924.63;5017692;28;20235;-66
2022/11/25 06:35:30;;;;;;;2.73;1.80;;;;;;;6.24;56.54;94928.53;5005302;28;20206;-65
2022/11/25 06:37:57;;;;;;;2.93;2.13;;;;;;;6.26;56.44;94937.06;5005996;28;20225;-65
2022/11/25 06:40:23;;;;;;;2.70;2.00;;;;;;;6.30;55.84;94946.28;5019300;28;20222;-65
2022/11/25 06:42:48;;;;;;;2.87;2.00;;;;;;;6.21;55.76;94947.06;5009474;28;20594;-65
2022/11/25 06:45:13;;;;;;;3.83;2.30;;;;;;;6.21;55.65;94962.72;5008486;28;20235;-65
2022/11/25 06:47:39;;;;;;;3.40;2.13;;;;;;;6.31;55.52;94958.41;5001738;28;20198;-65
2022/11/25 06:50:05;;;;;;;3.17;2.23;;;;;;;6.28;55.86;94950.78;5004308;28;20195;-66
2022/11/25 06:52:31;;;;;;;2.67;2.20;;;;;;;6.31;55.83;94956.59;5021549;28;20183;-65
2022/11/25 06:54:56;;;;;;;2.65;2.22;;;;;;;6.33;55.92;94972.97;5020788;28;20418;-66
2022/11/25 06:57:22;;;;;;;2.80;2.23;;;;;;;6.29;56.48;94962.91;5004829;28;20234;-66
2022/11/25 06:59:47;;;;;;;2.60;2.27;;;;;;;6.29;56.40;94975.97;5014022;28;20190;-70
2022/11/25 07:02:13;;;;;;;3.90;2.50;;;;;;;6.36;56.09;94990.16;5007847;28;20217;-67
2022/11/25 07:04:39;;;;;;;2.70;2.50;;;;;;;6.36;55.75;94984.94;5006542;28;20226;-68
2022/11/25 07:07:05;;;;;;;3.83;3.00;;;;;;;6.48;56.49;94981.31;5006295;28;20195;-63
2022/11/25 07:09:31;;;;;;;2.50;2.30;;;;;;;6.61;55.88;94986.34;5007286;28;20188;-63
2022/11/25 07:11:56;;;;;;;3.43;2.70;;;;;;;6.59;55.88;94989.06;5008029;28;20194;-63
2022/11/25 07:14:22;;;;;;;2.50;2.30;;;;;;;6.65;55.33;95000.81;5003714;28;20184;-65
2022/11/25 07:16:48;;;;;;;3.47;2.90;;;;;;;6.60;55.06;94998.59;5007563;28;20187;-66
2022/11/25 07:19:15;;;;;;;2.90;2.40;;;;;;;6.65;55.24;95008.63;5003988;28;20245;-65
2022/11/25 07:21:44;;;;;;;2.77;2.47;;;;;;;6.62;55.29;94996.66;5009447;28;20245;-65
2022/11/25 07:24:13;;;;;;;2.90;2.33;;;;;;;6.55;55.21;94984.25;5007271;28;20256;-65
2022/11/25 07:26:41;;;;;;;3.30;2.40;;;;;;;6.43;55.54;94987.88;4999291;28;20677;-65
2022/11/25 07:29:10;;;;;;;2.67;2.47;;;;;;;6.47;56.16;94994.50;5004560;28;20187;-67
2022/11/25 07:31:39;;;;;;;2.70;2.50;;;;;;;6.46;55.44;95000.69;5003509;28;20192;-66
2022/11/25 07:34:09;;;;;;;2.90;2.70;;;;;;;6.31;55.86;95005.41;5014629;28;20231;-68
2022/11/25 07:36:35;;;;;;;3.40;3.10;;;;;;;6.25;56.01;94993.66;5005394;28;20374;-67
2022/11/25 07:39:07;;;;;;;3.00;2.70;;;;;;;6.32;56.41;94997.44;5004541;28;20285;-66
2022/11/25 07:41:33;;;;;;;3.00;2.70;;;;;;;6.44;55.78;95008.63;5004312;28;20187;-68
2022/11/25 07:44:01;;;;;;;3.20;2.90;;;;;;;6.43;56.15;94995.72;5008631;28;20214;-65
2022/11/25 07:46:35;;;;;;;3.20;2.90;;;;;;;6.43;55.53;95001.75;5004775;28;20187;-66
2022/11/25 07:49:12;;;;;;;5.00;2.97;;;;;;;6.29;56.19;95005.50;5001322;28;20183;-66
2022/11/25 07:51:39;;;;;;;3.77;2.80;;;;;;;6.33;56.38;95016.53;4999130;28;20191;-66
2022/11/25 07:54:07;;;;;;;3.10;2.70;;;;;;;6.34;55.92;95016.41;5008369;28;20274;-67
2022/11/25 07:56:35;;;;;;;3.10;2.80;;;;;;;6.42;55.72;95025.41;5003812;28;20261;-67
2022/11/25 07:59:01;;;;;;;3.33;2.57;;;;;;;6.53;54.79;95013.13;5003011;28;20191;-66
2022/11/25 08:01:26;;;;;;;3.53;2.67;;;;;;;6.54;54.50;95013.94;5001450;28;20217;-66
2022/11/25 08:03:52;;;;;;;3.03;2.77;;;;;;;6.66;54.47;95012.94;5004204;28;20207;-66
2022/11/25 08:06:26;;;;;;;3.97;2.60;;;;;;;6.78;54.21;95011.88;5002737;28;20195;-66
2022/11/25 08:08:54;;;;;;;4.13;3.00;;;;;;;6.96;53.53;95024.38;5002787;28;20191;-67
2022/11/25 08:11:28;;;;;;;3.40;3.10;;;;;;;7.00;53.42;95018.78;5003548;28;20277;-65
2022/11/25 08:13:54;;;;;;;3.67;2.80;;;;;;;7.05;53.37;95029.63;4999916;28;20197;-67
2022/11/25 08:16:22;;;;;;;2.93;2.63;;;;;;;7.13;52.83;95022.94;5005209;28;20195;-66
2022/11/25 08:18:48;;;;;;;3.67;3.13;;;;;;;7.22;53.02;95020.38;4999338;28;20190;-69
2022/11/25 08:21:15;;;;;;;5.87;2.90;;;;;;;7.28;52.87;95021.63;5008252;28;20187;-64
2022/11/25 08:23:42;;;;;;;3.37;2.97;;;;;;;7.23;52.54;95021.19;5000710;28;20218;-65
2022/11/25 08:26:18;;;;;;;3.07;2.77;;;;;;;7.38;52.31;95037.38;5004675;28;20183;-68
2022/11/25 08:28:45;;;;;;;4.43;3.67;;;;;;;7.42;52.24;95017.81;4998647;28;20183;-64
2022/11/25 08:31:17;;;;;;;4.63;3.30;;;;;;;7.47;52.00;95029.56;5001525;28;20223;-64
2022/11/25 08:33:43;;;;;;;3.83;3.20;;;;;;;7.59;51.79;95035.53;5028526;28;20280;-67
2022/11/25 08:36:09;;;;;;;3.17;2.87;;;;;;;7.70;51.74;95030.19;5044516;28;20204;-68
2022/11/25 08:38:35;;;;;;;2.73;2.50;;;;;;;7.76;51.45;95034.06;5026762;28;20189;-67
2022/11/25 08:41:01;;;;;;;2.90;2.60;;;;;;;7.61;52.00;95041.44;5026020;28;20178;-67
2022/11/25 08:43:28;;;;;;;3.07;2.60;;;;;;;7.53;51.75;95038.66;5038291;28;20216;-65
2022/11/25 08:45:53;;;;;;;3.67;2.77;;;;;;;7.49;52.10;95035.47;5029789;28;20201;-66
2022/11/25 08:48:20;;;;;;;3.53;3.23;;;;;;;7.70;52.74;95030.19;5021796;28;20179;-69
2022/11/25 08:50:51;;;;;;;3.93;3.63;;;;;;;7.86;52.07;95047.19;5024368;28;20182;-71
2022/11/25 08:53:17;;;;;;;3.10;2.90;;;;;;;7.93;51.94;95025.53;5027576;28;20239;-69
2022/11/25 08:55:43;;;;;;;3.77;3.47;;;;;;;7.93;51.28;95046.47;5021901;28;20280;-66
2022/11/25 08:58:10;;;;;;;3.30;3.00;;;;;;;7.74;51.54;95033.34;5041123;28;20261;-66
2022/11/25 09:00:43;;;;;;;4.73;2.60;;;;;;;7.83;51.11;95022.09;5026647;28;20186;-66
2022/11/25 09:03:09;;;;;;;3.63;3.33;;;;;;;7.86;51.12;95034.91;5025612;28;20189;-66
2022/11/25 09:05:39;;;;;;;3.57;2.93;;;;;;;7.76;51.23;95038.47;5036555;28;20235;-68
2022/11/25 09:08:05;;;;;;;2.90;2.70;;;;;;;7.61;51.73;95038.00;5023385;28;20285;-66
2022/11/25 09:10:32;;;;;;;3.43;3.13;;;;;;;7.68;51.48;95033.91;5021175;28;20256;-66
2022/11/25 09:12:58;;;;;;;3.47;3.17;;;;;;;7.72;51.74;95022.19;5039007;28;20196;-67
2022/11/25 09:15:24;;;;;;;4.83;3.17;;;;;;;7.85;51.74;95029.78;5021850;28;20224;-67
2022/11/25 09:18:01;;;;;;;4.33;3.03;;;;;;;7.95;51.21;95041.13;5024010;28;20186;-68
2022/11/25 09:20:27;;;;;;;4.47;3.23;;;;;;;7.99;50.99;95036.44;5022362;28;20189;-66
2022/11/25 09:22:52;;;;;;;3.50;3.03;;;;;;;7.98;51.07;95032.97;5044367;28;20224;-67
2022/11/25 09:25:19;;;;;;;3.60;3.30;;;;;;;7.98;51.13;95035.59;5024045;28;20206;-67
2022/11/25 09:27:45;;;;;;;4.07;3.67;;;;;;;8.02;50.96;95033.53;5027729;28;20190;-67
2022/11/25 09:30:11;;;;;;;3.50;3.20;;;;;;;8.10;50.66;95041.53;5024391;28;20186;-67
2022/11/25 09:32:36;;;;;;;3.40;3.10;;;;;;;8.19;50.69;95032.88;5018311;28;20261;-68
2022/11/25 09:35:02;;;;;;;3.60;3.20;;;;;;;8.29;50.52;95027.66;5002735;28;20187;-68
2022/11/25 09:37:27;;;;;;;3.77;3.30;;;;;;;8.38;50.25;95038.13;4999780;28;20555;-67
2022/11/25 09:39:56;;;;;;;3.57;3.00;;;;;;;8.50;50.02;95048.47;5005056;28;20205;-67
2022/11/25 09:48:45;;;;;;;3.70;3.30;;;;;;;8.32;50.29;95030.00;4998529;28;20250;-69
2022/11/25 09:51:29;;;;;;;4.00;3.60;;;;;;;8.69;49.51;95027.53;4941485;28;20334;-67
2022/11/25 09:54:04;;;;;;;5.60;3.30;;;;;;;9.00;48.41;95045.69;4960382;28;20235;-70
2022/11/25 09:56:46;;;;;;;3.50;3.20;;;;;;;9.36;47.81;95036.19;4944825;28;20195;-67
2022/11/25 09:59:17;;;;;;;4.37;2.93;;;;;;;9.18;48.04;95036.13;4945535;28;20184;-68
2022/11/25 10:01:54;;;;;;;5.17;3.73;;;;;;;9.30;47.40;95036.75;4961596;28;20283;-67
2022/11/25 10:04:33;;;;;;;3.53;2.60;;;;;;;8.94;47.80;95038.38;4949383;28;20212;-67
2022/11/25 10:07:02;;;;;;;2.70;2.50;;;;;;;9.10;47.63;95043.88;4939822;28;20272;-67
2022/11/25 10:09:32;;;;;;;6.17;3.10;;;;;;;9.16;47.84;95035.41;4941594;28;20216;-67
2022/11/25 10:12:05;;;;;;;3.47;3.13;;;;;;;9.09;47.42;95034.34;4944477;28;20189;-66
2022/11/25 10:14:43;;;;;;;3.93;3.20;;;;;;;9.36;47.01;95033.56;4947735;28;20196;-68
2022/11/25 10:17:09;;;;;;;2.83;2.63;;;;;;;9.23;47.17;95038.31;4942475;28;20299;-66
2022/11/25 10:20:16;;;;;;;3.57;3.00;;;;;;;9.37;47.36;95032.59;4940842;28;20215;-65
2022/11/25 10:22:46;;;;;;;3.33;3.03;;;;;;;9.27;47.04;95021.31;4951349;28;20333;-68
2022/11/25 10:25:24;;;;;;;4.80;3.40;;;;;;;9.02;47.53;95036.69;4940247;28;20282;-68
2022/11/25 10:27:59;;;;;;;4.00;3.10;;;;;;;9.24;47.36;95027.66;4970694;28;20207;-68
2022/11/25 10:31:04;;;;;;;2.83;2.47;;;;;;;9.19;46.95;95029.88;5003406;28;20261;-68
2022/11/25 10:33:38;;;;;;;2.63;2.43;;;;;;;9.10;47.48;95041.25;4954618;28;20248;-67
2022/11/25 10:36:13;;;;;;;2.83;2.40;;;;;;;9.14;47.21;95037.38;4966140;28;20191;-68
2022/11/25 10:38:44;;;;;;;3.77;2.83;;;;;;;9.28;46.51;95020.34;4963463;28;20205;-68
2022/11/25 10:41:17;;;;;;;2.90;2.60;;;;;;;9.50;46.30;95042.78;4962642;28;20218;-68
2022/11/25 10:43:46;;;;;;;2.50;2.27;;;;;;;9.61;45.74;95050.47;4953756;28;20230;-66
2022/11/25 10:46:39;;;;;;;3.03;2.30;;;;;;;9.39;46.28;95045.59;4965643;28;20244;-66
2022/11/25 10:49:19;;;;;;;2.30;2.10;;;;;;;9.71;45.86;95042.53;4964084;28;20176;-65
2022/11/25 10:51:49;;;;;;;2.80;1.90;;;;;;;9.69;44.41;95040.06;4949147;28;20211;-65
2022/11/25 10:54:18;;;;;;;2.73;2.00;;;;;;;9.50;44.38;95048.84;4967176;28;20275;-64
2022/11/25 10:57:14;;;;;;;2.33;1.97;;;;;;;9.84;43.96;95055.34;4967982;28;20643;-65
2022/11/25 10:59:40;;;;;;;2.27;2.07;;;;;;;10.20;43.40;95044.88;4949244;28;20284;-73
2022/11/25 11:02:14;;;;;;;2.43;2.23;;;;;;;10.23;43.28;95050.66;4954351;28;20268;-74
2022/11/25 11:04:51;;;;;;;3.13;2.23;;;;;;;10.33;43.28;95055.88;4962384;28;20267;-73
2022/11/25 11:07:16;;;;;;;2.83;2.50;;;;;;;9.99;43.92;95069.63;4964465;28;20203;-71
2022/11/25 11:09:42;;;;;;;3.07;2.00;;;;;;;9.56;45.09;95063.19;4966159;28;20201;-71
2022/11/25 11:12:19;;;;;;;4.07;2.80;;;;;;;9.31;45.62;95048.91;5008642;28;20281;-71
2022/11/25 11:14:45;;;;;;;3.17;2.50;;;;;;;9.25;45.83;95058.19;5005002;28;20647;-72
2022/11/25 11:17:23;;;;;;;3.47;2.67;;;;;;;8.98;46.89;95063.34;5009924;28;20179;-71
2022/11/25 11:20:13;;;;;;;3.23;2.30;;;;;;;9.04;46.96;95060.19;5021864;28;20183;-72
2022/11/25 11:22:46;;;;;;;3.87;2.60;;;;;;;8.81;47.57;95068.34;5023496;28;20187;-72
2022/11/25 11:25:22;;;;;;;2.77;2.33;;;;;;;8.72;48.22;95060.50;5008725;28;20199;-72
2022/11/25 11:27:48;;;;;;;2.53;2.33;;;;;;;8.70;48.47;95075.53;5004874;28;20197;-75
2022/11/25 11:30:23;;;;;;;2.87;2.40;;;;;;;9.12;47.53;95059.47;5007676;28;20191;-75
2022/11/25 11:32:54;;;;;;;3.40;3.10;;;;;;;9.52;46.44;95067.09;5016536;28;20230;-74
2022/11/25 11:35:29;;;;;;;2.13;1.93;;;;;;;9.41;46.80;95067.25;5000957;28;20202;-75
2022/11/25 11:38:03;;;;;;;2.67;2.37;;;;;;;9.64;46.34;95071.16;5004023;28;20270;-75
2022/11/25 11:40:46;;;;;;;3.10;2.80;;;;;;;9.70;46.27;95069.75;5002894;28;20191;-73
2022/11/25 11:43:30;;;;;;;2.70;2.50;;;;;;;9.96;45.79;95071.72;5000975;28;20215;-77
2022/11/25 11:45:58;;;;;;;4.10;2.60;;;;;;;9.39;47.00;95070.03;5010618;28;20214;-76
2022/11/25 11:48:44;;;;;;;3.87;2.60;;;;;;;9.14;47.70;95079.34;5003256;28;20187;-74
2022/11/25 11:51:35;;;;;;;4.43;2.73;;;;;;;9.17;47.32;95084.31;5009078;28;20313;-72
2022/11/25 11:54:28;;;;;;;3.77;2.40;;;;;;;9.26;47.29;95086.06;4998137;28;20211;-77
2022/11/25 11:57:04;;;;;;;3.40;2.37;;;;;;;9.53;46.53;95068.72;5007039;28;20224;-74
2022/11/25 11:59:47;;;;;;;4.10;2.80;;;;;;;9.60;46.17;95066.38;5013963;28;20187;-74
2022/11/25 12:02:36;;;;;;;3.43;3.13;;;;;;;9.63;46.48;95056.41;5006029;28;20282;-74
2022/11/25 12:05:02;;;;;;;3.10;2.80;;;;;;;9.73;46.50;95069.50;5004606;28;20203;-74